createdAt,value
2018-07-26T00:00:44.854Z,7.30
2018-07-26T00:03:18.899Z,8.23
2018-07-26T00:06:05.799Z,9.18
2018-07-26T00:08:48.243Z,9.13
2018-07-26T00:11:17.871Z,9.00
2018-07-26T00:13:48.184Z,8.30
2018-07-26T00:16:17.846Z,7.72
2018-07-26T00:18:47.073Z,9.00
2018-07-26T00:21:18.378Z,8.68
2018-07-26T00:23:50.675Z,9.68
2018-07-26T00:26:23.768Z,9.65
2018-07-26T00:28:53.786Z,8.88
2018-07-26T00:34:01.922Z,10.28
2018-07-26T00:36:31.565Z,10.08
2018-07-26T00:39:01.315Z,12.03
2018-07-26T00:41:32.527Z,9.80
2018-07-26T00:44:01.751Z,9.50
2018-07-26T00:46:33.515Z,9.80
2018-07-26T00:49:03.651Z,9.48
2018-07-26T00:51:32.930Z,9.38
2018-07-26T00:54:02.484Z,7.95
2018-07-26T00:56:34.971Z,8.90
2018-07-26T00:59:05.992Z,8.65
2018-07-26T01:01:35.206Z,8.18
2018-07-26T01:04:06.292Z,9.50
2018-07-26T01:06:36.187Z,9.78
2018-07-26T01:09:08.325Z,10.08
2018-07-26T01:11:37.787Z,10.53
2018-07-26T01:14:10.910Z,9.65
2018-07-26T01:16:41.724Z,10.45
2018-07-26T01:19:11.846Z,10.63
2018-07-26T01:21:41.911Z,11.10
2018-07-26T01:24:13.194Z,11.20
2018-07-26T01:29:29.156Z,11.25
2018-07-26T01:31:58.431Z,12.28
2018-07-26T01:34:28.228Z,11.33
2018-07-26T01:37:07.611Z,13.72
2018-07-26T01:39:41.674Z,12.15
2018-07-26T01:42:11.886Z,10.63
2018-07-26T01:44:58.487Z,11.73
2018-07-26T01:47:27.639Z,11.50
2018-07-26T01:49:56.859Z,11.45
2018-07-26T01:52:30.639Z,12.13
2018-07-26T01:54:59.834Z,10.43
2018-07-26T01:57:29.714Z,11.28
2018-07-26T02:00:00.571Z,11.10
2018-07-26T02:02:29.826Z,12.82
2018-07-26T02:04:59.615Z,14.03
2018-07-26T02:07:28.783Z,12.70
2018-07-26T02:09:58.039Z,12.53
2018-07-26T02:12:29.363Z,12.43
2018-07-26T02:14:59.457Z,11.48
2018-07-26T02:17:28.679Z,11.38
2018-07-26T02:19:57.895Z,11.03
2018-07-26T02:22:27.170Z,11.57
2018-07-26T02:24:56.451Z,11.10
2018-07-26T02:27:26.800Z,11.25
2018-07-26T02:29:55.973Z,11.25
2018-07-26T02:32:25.975Z,11.18
2018-07-26T02:34:55.571Z,10.63
2018-07-26T02:39:58.224Z,10.55
2018-07-26T02:42:28.152Z,12.58
2018-07-26T02:44:57.391Z,11.80
2018-07-26T02:47:28.342Z,12.33
2018-07-26T02:49:57.616Z,11.22
2018-07-26T02:52:27.451Z,11.03
2018-07-26T02:54:56.755Z,11.38
2018-07-26T02:57:26.071Z,10.78
2018-07-26T02:59:55.272Z,11.65
2018-07-26T03:02:24.704Z,12.37
2018-07-26T03:04:54.912Z,13.72
2018-07-26T03:07:24.259Z,12.65
2018-07-26T03:09:53.434Z,11.80
2018-07-26T03:12:22.634Z,13.10
2018-07-26T03:14:51.897Z,11.70
2018-07-26T03:17:21.195Z,11.78
2018-07-26T03:19:51.037Z,10.10
2018-07-26T03:22:20.631Z,12.45
2018-07-26T03:24:49.879Z,11.73
2018-07-26T03:27:19.679Z,11.35
2018-07-26T03:29:49.151Z,11.15
2018-07-26T03:32:19.577Z,10.40
2018-07-26T03:34:48.781Z,11.45
2018-07-26T03:37:18.063Z,12.05
2018-07-26T03:39:47.621Z,13.15
2018-07-26T03:42:16.835Z,12.78
2018-07-26T03:44:47.859Z,12.63
2018-07-26T03:47:17.104Z,13.25
2018-07-26T03:49:46.707Z,11.97
2018-07-26T03:52:16.678Z,13.55
2018-07-26T03:54:46.976Z,12.25
2018-07-26T03:57:16.320Z,12.40
2018-07-26T03:59:49.379Z,13.65
2018-07-26T04:02:18.707Z,11.88
2018-07-26T04:04:48.888Z,14.60
2018-07-26T04:07:28.905Z,14.13
2018-07-26T04:09:58.038Z,13.88
2018-07-26T04:12:28.750Z,15.25
2018-07-26T04:14:58.056Z,14.53
2018-07-26T04:17:29.119Z,13.00
2018-07-26T04:19:58.423Z,13.25
2018-07-26T04:22:27.656Z,14.90
2018-07-26T04:24:57.559Z,15.23
2018-07-26T04:27:27.147Z,14.23
2018-07-26T04:29:56.375Z,13.88
2018-07-26T04:32:25.708Z,15.15
2018-07-26T04:34:55.161Z,16.73
2018-07-26T04:37:25.100Z,14.90
2018-07-26T04:39:54.297Z,16.80
2018-07-26T04:42:23.201Z,14.90
2018-07-26T04:44:52.304Z,14.15
2018-07-26T04:47:21.519Z,14.80
2018-07-26T04:49:51.685Z,13.32
2018-07-26T04:52:21.415Z,15.78
2018-07-26T04:54:50.422Z,16.15
2018-07-26T04:57:19.551Z,15.83
2018-07-26T04:59:50.639Z,15.43
2018-07-26T05:02:19.898Z,17.35
2018-07-26T05:04:49.072Z,15.30
2018-07-26T05:07:19.279Z,15.50
2018-07-26T05:09:50.631Z,16.80
2018-07-26T05:12:24.599Z,16.00
2018-07-26T05:14:55.221Z,16.35
2018-07-26T05:17:25.257Z,15.83
2018-07-26T05:19:57.153Z,16.23
2018-07-26T05:22:28.030Z,16.37
2018-07-26T05:24:57.331Z,17.32
2018-07-26T05:27:26.250Z,17.52
2018-07-26T05:29:55.328Z,17.05
2018-07-26T05:32:24.547Z,17.17
2018-07-26T05:34:53.818Z,19.80
2018-07-26T05:37:23.708Z,19.57
2018-07-26T05:39:53.362Z,19.07
2018-07-26T05:42:22.643Z,18.95
2018-07-26T05:44:51.855Z,17.92
2018-07-26T05:47:21.167Z,16.85
2018-07-26T05:49:51.284Z,18.73
2018-07-26T05:52:21.339Z,17.48
2018-07-26T05:54:56.625Z,18.00
2018-07-26T05:57:25.807Z,17.20
2018-07-26T05:59:55.191Z,17.52
2018-07-26T06:02:25.265Z,17.73
2018-07-26T06:04:56.794Z,19.02
2018-07-26T06:07:26.599Z,19.25
2018-07-26T06:10:01.797Z,21.05
2018-07-26T06:12:31.331Z,17.98
2018-07-26T06:15:01.596Z,18.75
2018-07-26T06:17:32.579Z,19.98
2018-07-26T06:20:02.141Z,16.90
2018-07-26T06:22:31.572Z,19.30
2018-07-26T06:25:00.740Z,15.78
2018-07-26T06:27:30.040Z,15.98
2018-07-26T06:30:01.772Z,15.68
2018-07-26T06:32:30.959Z,15.95
2018-07-26T06:35:00.897Z,14.75
2018-07-26T06:37:30.118Z,15.10
2018-07-26T06:39:59.331Z,16.95
2018-07-26T06:42:28.600Z,15.55
2018-07-26T06:44:57.767Z,15.10
2018-07-26T06:47:27.984Z,14.47
2018-07-26T06:49:57.246Z,16.87
2018-07-26T06:52:28.938Z,13.32
2018-07-26T06:54:58.557Z,15.65
2018-07-26T06:57:27.785Z,13.98
2018-07-26T06:59:57.010Z,15.75
2018-07-26T07:02:25.911Z,15.48
2018-07-26T07:04:55.083Z,15.72
2018-07-26T07:07:24.482Z,18.70
2018-07-26T07:09:54.275Z,19.23
2018-07-26T07:12:23.489Z,18.50
2018-07-26T07:14:53.231Z,17.27
2018-07-26T07:17:22.471Z,21.93
2018-07-26T07:19:51.762Z,17.67
2018-07-26T07:22:21.180Z,17.57
2018-07-26T07:24:51.495Z,17.23
2018-07-26T07:27:22.103Z,13.05
2018-07-26T07:29:52.423Z,19.55
2018-07-26T07:32:21.591Z,13.93
2018-07-26T07:34:55.651Z,15.23
2018-07-26T07:37:24.855Z,16.93
2018-07-26T07:39:54.150Z,16.45
2018-07-26T07:42:26.057Z,13.10
2018-07-26T07:44:56.134Z,16.52
2018-07-26T07:47:25.512Z,14.25
2018-07-26T07:49:55.308Z,11.15
2018-07-26T07:52:24.294Z,13.62
2018-07-26T07:54:59.184Z,10.90
2018-07-26T07:57:30.722Z,12.03
2018-07-26T08:00:00.402Z,11.25
2018-07-26T08:02:32.053Z,11.43
2018-07-26T08:05:01.372Z,10.72
2018-07-26T08:07:31.746Z,8.40
2018-07-26T08:10:01.051Z,13.43
2018-07-26T08:12:31.450Z,12.30
2018-07-26T08:15:00.740Z,10.93
2018-07-26T08:17:30.643Z,10.28
2018-07-26T08:20:01.687Z,12.93
2018-07-26T08:22:31.403Z,9.60
2018-07-26T08:25:02.107Z,10.78
2018-07-26T08:27:32.094Z,15.13
2018-07-26T08:30:01.510Z,9.63
2018-07-26T08:32:31.545Z,10.05
2018-07-26T08:35:00.986Z,11.00
2018-07-26T08:37:31.655Z,8.28
2018-07-26T08:40:02.182Z,8.08
2018-07-26T08:42:31.830Z,11.50
2018-07-26T08:45:01.115Z,7.42
2018-07-26T08:47:31.407Z,10.35
2018-07-26T08:50:03.642Z,7.20
2018-07-26T08:52:33.255Z,7.03
2018-07-26T08:55:03.602Z,11.80
2018-07-26T08:57:33.319Z,7.92
2018-07-26T09:00:04.104Z,9.85
2018-07-26T09:02:33.411Z,8.38
2018-07-26T09:05:02.678Z,9.78
2018-07-26T09:07:31.997Z,6.08
2018-07-26T09:10:01.527Z,6.25
2018-07-26T09:12:30.799Z,6.20
2018-07-26T09:15:00.190Z,6.22
2018-07-26T09:17:29.439Z,6.95
2018-07-26T09:19:58.907Z,7.30
2018-07-26T09:22:28.947Z,6.10
2018-07-26T09:24:58.242Z,5.60
2018-07-26T09:27:27.646Z,6.00
2018-07-26T09:29:56.910Z,8.08
2018-07-26T09:32:26.211Z,6.30
2018-07-26T09:34:55.472Z,6.78
2018-07-26T09:37:24.432Z,5.70
2018-07-26T09:39:53.528Z,6.70
2018-07-26T09:42:22.751Z,5.28
2018-07-26T09:44:52.240Z,7.10
2018-07-26T09:47:21.551Z,5.70
2018-07-26T09:49:51.266Z,5.42
2018-07-26T09:52:20.575Z,7.92
2018-07-26T09:54:49.753Z,4.83
2018-07-26T09:57:19.891Z,5.15
2018-07-26T09:59:49.114Z,7.67
2018-07-26T10:02:18.383Z,11.50
2018-07-26T10:04:47.607Z,4.78
2018-07-26T10:07:17.016Z,5.10
2018-07-26T10:09:46.311Z,5.33
2018-07-26T10:12:15.830Z,5.15
2018-07-26T10:14:45.036Z,5.03
2018-07-26T10:17:14.242Z,4.35
2018-07-26T10:19:43.459Z,4.00
2018-07-26T10:22:12.718Z,4.58
2018-07-26T10:24:41.944Z,4.03
2018-07-26T10:27:11.492Z,4.25
2018-07-26T10:29:40.402Z,3.98
2018-07-26T10:32:09.619Z,3.90
2018-07-26T10:34:38.891Z,6.45
2018-07-26T10:37:08.661Z,3.70
2018-07-26T10:39:37.912Z,4.65
2018-07-26T10:42:07.126Z,4.70
2018-07-26T10:44:37.120Z,4.78
2018-07-26T10:47:06.745Z,4.17
2018-07-26T10:49:36.553Z,7.25
2018-07-26T10:52:06.395Z,4.97
2018-07-26T10:54:35.628Z,7.95
2018-07-26T10:57:04.872Z,4.37
2018-07-26T10:59:34.204Z,5.00
2018-07-26T11:02:03.475Z,3.72
2018-07-26T11:04:32.662Z,7.00
2018-07-26T11:07:01.887Z,7.37
2018-07-26T11:09:31.135Z,4.10
2018-07-26T11:12:01.061Z,5.20
2018-07-26T11:14:30.284Z,6.55
2018-07-26T11:16:59.535Z,5.42
2018-07-26T11:19:28.934Z,5.40
2018-07-26T11:21:57.915Z,5.37
2018-07-26T11:24:27.138Z,4.50
2018-07-26T11:26:56.423Z,3.90
2018-07-26T11:29:26.073Z,4.30
2018-07-26T11:31:55.739Z,4.30
2018-07-26T11:34:24.997Z,3.65
2018-07-26T11:36:54.483Z,3.42
2018-07-26T11:39:23.960Z,3.98
2018-07-26T11:41:53.243Z,4.75
2018-07-26T11:44:22.646Z,3.85
2018-07-26T11:46:52.030Z,4.85
2018-07-26T11:49:21.280Z,4.20
2018-07-26T11:51:50.570Z,3.83
2018-07-26T11:54:19.843Z,4.05
2018-07-26T11:56:49.116Z,5.25
2018-07-26T11:59:19.036Z,3.85
2018-07-26T12:01:48.260Z,5.12
2018-07-26T12:04:17.491Z,3.37
2018-07-26T12:06:46.836Z,3.92
2018-07-26T12:09:16.447Z,4.95
2018-07-26T12:11:45.707Z,3.22
2018-07-26T12:14:15.088Z,2.95
2018-07-26T12:16:44.759Z,2.87
2018-07-26T12:19:14.072Z,3.37
2018-07-26T12:21:43.424Z,2.92
2018-07-26T12:24:12.847Z,2.90
2018-07-26T12:26:42.113Z,3.08
2018-07-26T12:29:11.611Z,2.72
2018-07-26T12:31:41.568Z,3.05
2018-07-26T12:34:10.791Z,3.05
2018-07-26T12:36:39.997Z,3.50
2018-07-26T12:39:11.574Z,4.55
2018-07-26T12:41:40.975Z,3.80
2018-07-26T12:44:10.813Z,5.97
2018-07-26T12:46:40.786Z,3.52
2018-07-26T12:49:10.605Z,4.25
2018-07-26T12:51:39.728Z,4.97
2018-07-26T12:54:08.962Z,3.60
2018-07-26T12:56:38.282Z,3.08
2018-07-26T12:59:07.539Z,3.60
2018-07-26T13:01:36.881Z,3.50
2018-07-26T13:04:06.413Z,3.15
2018-07-26T13:06:35.666Z,4.40
2018-07-26T13:09:08.282Z,2.85
2018-07-26T13:11:38.168Z,3.02
2018-07-26T13:14:09.005Z,3.30
2018-07-26T13:16:38.248Z,3.90
2018-07-26T13:19:07.577Z,3.47
2018-07-26T13:21:37.491Z,4.42
2018-07-26T13:24:06.869Z,4.42
2018-07-26T13:26:36.558Z,5.03
2018-07-26T13:29:05.853Z,3.08
2018-07-26T13:31:35.530Z,2.75
2018-07-26T13:34:05.002Z,3.17
2018-07-26T13:36:34.580Z,2.70
2018-07-26T13:39:07.143Z,3.35
2018-07-26T13:41:36.576Z,3.83
2018-07-26T13:44:06.435Z,4.92
2018-07-26T13:46:35.704Z,2.75
2018-07-26T13:49:05.362Z,2.67
2018-07-26T13:51:34.687Z,4.30
2018-07-26T13:54:06.629Z,3.10
2018-07-26T13:56:35.934Z,2.77
2018-07-26T13:59:05.440Z,2.42
2018-07-26T14:01:34.564Z,2.70
2018-07-26T14:04:03.849Z,4.92
2018-07-26T14:06:40.125Z,3.12
2018-07-26T14:09:11.153Z,3.15
2018-07-26T14:11:40.853Z,4.22
2018-07-26T14:14:10.574Z,3.27
2018-07-26T14:16:39.884Z,3.45
2018-07-26T14:19:09.964Z,5.28
2018-07-26T14:21:39.204Z,3.80
2018-07-26T14:24:12.852Z,2.47
2018-07-26T14:26:42.078Z,6.70
2018-07-26T14:29:11.504Z,2.50
2018-07-26T14:31:41.528Z,2.77
2018-07-26T14:34:11.893Z,2.83
2018-07-26T14:36:41.203Z,2.80
2018-07-26T14:39:11.195Z,2.60
2018-07-26T14:41:40.963Z,3.75
2018-07-26T14:44:10.763Z,3.52
2018-07-26T14:46:40.283Z,3.02
2018-07-26T14:49:09.555Z,5.22
2018-07-26T14:51:38.791Z,2.95
2018-07-26T14:54:08.095Z,4.70
2018-07-26T14:56:38.354Z,4.83
2018-07-26T14:59:08.088Z,3.55
2018-07-26T15:01:37.385Z,4.35
2018-07-26T15:04:09.506Z,3.55
2018-07-26T15:06:38.422Z,3.67
2018-07-26T15:09:09.490Z,2.70
2018-07-26T15:11:38.989Z,3.05
2018-07-26T15:14:08.553Z,3.72
2018-07-26T15:16:38.640Z,3.05
2018-07-26T15:19:08.103Z,4.87
2018-07-26T15:21:37.363Z,3.25
2018-07-26T15:24:06.587Z,1.95
2018-07-26T15:26:35.743Z,3.12
2018-07-26T15:29:05.060Z,2.95
2018-07-26T15:31:34.286Z,3.05
2018-07-26T15:34:03.645Z,5.53
2018-07-26T15:36:33.407Z,2.85
2018-07-26T15:39:03.797Z,3.83
2018-07-26T15:41:32.999Z,3.08
2018-07-26T15:44:02.506Z,4.83
2018-07-26T15:46:31.709Z,4.78
2018-07-26T15:49:00.965Z,3.45
2018-07-26T15:51:30.249Z,2.45
2018-07-26T15:53:59.834Z,2.65
2018-07-26T15:56:30.391Z,5.25
2018-07-26T15:58:59.974Z,5.33
2018-07-26T16:01:29.360Z,2.58
2018-07-26T16:03:59.328Z,2.52
2018-07-26T16:06:29.923Z,2.40
2018-07-26T16:08:59.142Z,2.45
2018-07-26T16:11:28.512Z,4.67
2018-07-26T16:13:57.767Z,3.27
2018-07-26T16:16:26.964Z,3.87
2018-07-26T16:18:56.307Z,2.10
2018-07-26T16:21:25.557Z,2.90
2018-07-26T16:23:54.917Z,3.35
2018-07-26T16:26:24.234Z,4.28
2018-07-26T16:28:53.540Z,3.87
2018-07-26T16:31:23.658Z,3.40
2018-07-26T16:33:52.940Z,2.80
2018-07-26T16:36:23.383Z,3.08
2018-07-26T16:38:53.769Z,2.85
2018-07-26T16:41:23.101Z,3.17
2018-07-26T16:43:52.695Z,4.20
2018-07-26T16:46:21.945Z,4.60
2018-07-26T16:48:51.286Z,2.72
2018-07-26T16:51:20.827Z,4.35
2018-07-26T16:53:50.119Z,2.55
2018-07-26T16:56:19.314Z,2.72
2018-07-26T16:58:50.275Z,3.22
2018-07-26T17:01:19.492Z,2.70
2018-07-26T17:03:49.461Z,5.17
2018-07-26T17:06:18.685Z,2.77
2018-07-26T17:08:48.370Z,3.08
2018-07-26T17:11:18.345Z,3.25
2018-07-26T17:13:48.465Z,2.55
2018-07-26T17:16:17.699Z,2.50
2018-07-26T17:18:46.995Z,3.12
2018-07-26T17:21:17.068Z,2.70
2018-07-26T17:23:46.341Z,2.50
2018-07-26T17:26:15.713Z,3.25
2018-07-26T17:28:45.162Z,2.50
2018-07-26T17:31:14.360Z,3.92
2018-07-26T17:33:43.990Z,2.80
2018-07-26T17:36:13.498Z,3.05
2018-07-26T17:38:42.780Z,4.53
2018-07-26T17:41:12.840Z,3.67
2018-07-26T17:43:42.144Z,5.17
2018-07-26T17:46:12.300Z,4.15
2018-07-26T17:48:41.555Z,3.00
2018-07-26T17:51:10.878Z,4.50
2018-07-26T17:53:40.220Z,3.30
2018-07-26T17:56:09.735Z,2.85
2018-07-26T17:58:40.411Z,2.52
2018-07-26T18:01:10.138Z,3.02
2018-07-26T18:03:39.711Z,4.87
2018-07-26T18:06:08.932Z,4.45
2018-07-26T18:08:38.174Z,3.52
2018-07-26T18:11:07.766Z,3.92
2018-07-26T18:13:37.083Z,3.30
2018-07-26T18:16:06.438Z,7.00
2018-07-26T18:18:35.774Z,4.47
2018-07-26T18:21:05.236Z,4.17
2018-07-26T18:23:34.562Z,4.47
2018-07-26T18:26:04.941Z,4.17
2018-07-26T18:28:34.568Z,3.10
2018-07-26T18:31:03.954Z,4.53
2018-07-26T18:33:33.282Z,3.42
2018-07-26T18:36:02.617Z,4.35
2018-07-26T18:38:32.075Z,4.53
2018-07-26T18:41:01.492Z,3.98
2018-07-26T18:43:31.143Z,2.98
2018-07-26T18:46:00.954Z,4.75
2018-07-26T18:48:30.283Z,3.90
2018-07-26T18:50:59.744Z,3.35
2018-07-26T18:53:29.167Z,4.92
2018-07-26T18:55:58.489Z,3.33
2018-07-26T18:58:28.038Z,3.42
2018-07-26T19:00:57.491Z,4.12
2018-07-26T19:03:26.759Z,4.30
2018-07-26T19:05:56.050Z,4.08
2018-07-26T19:08:25.362Z,3.27
2018-07-26T19:10:55.023Z,5.15
2018-07-26T19:13:24.251Z,3.98
2018-07-26T19:15:53.995Z,5.20
2018-07-26T19:18:23.296Z,3.20
2018-07-26T19:20:52.695Z,3.87
2018-07-26T19:23:22.299Z,3.12
2018-07-26T19:25:51.985Z,4.53
2018-07-26T19:28:21.292Z,3.50
2018-07-26T19:30:50.596Z,4.05
2018-07-26T19:33:20.279Z,3.83
2018-07-26T19:35:50.234Z,4.45
2018-07-26T19:38:20.389Z,4.83
2018-07-26T19:40:49.687Z,3.20
2018-07-26T19:43:19.830Z,3.60
2018-07-26T19:45:49.291Z,5.20
2018-07-26T19:48:19.315Z,5.95
2018-07-26T19:50:48.621Z,4.70
2018-07-26T19:53:18.389Z,4.12
2018-07-26T19:55:47.804Z,3.83
2018-07-26T19:58:17.089Z,4.12
2018-07-26T20:00:48.133Z,3.77
2018-07-26T20:03:18.175Z,4.40
2018-07-26T20:05:48.028Z,4.28
2018-07-26T20:08:18.191Z,4.60
2018-07-26T20:10:47.564Z,6.28
2018-07-26T20:13:17.627Z,5.83
2018-07-26T20:15:46.898Z,3.77
2018-07-26T20:18:16.715Z,3.80
2018-07-26T20:20:46.819Z,4.60
2018-07-26T20:23:16.123Z,4.35
2018-07-26T20:25:47.624Z,4.08
2018-07-26T20:28:17.029Z,4.70
2018-07-26T20:30:46.376Z,4.53
2018-07-26T20:33:15.918Z,3.95
2018-07-26T20:35:45.107Z,5.78
2018-07-26T20:38:17.272Z,4.95
2018-07-26T20:40:46.896Z,5.25
2018-07-26T20:43:16.124Z,4.58
2018-07-26T20:45:45.418Z,5.12
2018-07-26T20:48:14.749Z,4.22
2018-07-26T20:50:44.998Z,4.78
2018-07-26T20:53:14.903Z,7.28
2018-07-26T20:55:45.569Z,5.22
2018-07-26T20:58:15.201Z,4.12
2018-07-26T21:00:44.451Z,4.75
2018-07-26T21:03:13.707Z,5.58
2018-07-26T21:05:43.079Z,5.87
2018-07-26T21:08:12.595Z,4.62
2018-07-26T21:10:43.040Z,3.60
2018-07-26T21:13:12.150Z,5.15
2018-07-26T21:15:42.102Z,5.05
2018-07-26T21:18:11.412Z,5.47
2018-07-26T21:20:41.007Z,5.12
2018-07-26T21:23:11.494Z,5.90
2018-07-26T21:25:41.516Z,4.62
2018-07-26T21:28:10.766Z,4.42
2018-07-26T21:30:40.023Z,4.67
2018-07-26T21:33:09.251Z,4.55
2018-07-26T21:35:38.517Z,4.80
2018-07-26T21:38:08.127Z,4.15
2018-07-26T21:40:37.361Z,4.50
2018-07-26T21:43:07.236Z,4.45
2018-07-26T21:45:36.512Z,5.95
2018-07-26T21:48:05.737Z,5.37
2018-07-26T21:50:35.038Z,4.58
2018-07-26T21:53:05.259Z,4.28
2018-07-26T21:55:34.834Z,4.10
2018-07-26T21:58:04.114Z,4.30
2018-07-26T22:09:10.262Z,4.70
2018-07-26T22:11:40.183Z,4.12
2018-07-26T22:14:09.659Z,4.00
2018-07-26T22:16:38.884Z,3.92
2018-07-26T22:19:08.119Z,4.47
2018-07-26T22:21:37.987Z,5.40
2018-07-26T22:24:07.676Z,4.53
2018-07-26T22:26:36.911Z,4.92
2018-07-26T22:29:06.235Z,4.05
2018-07-26T22:31:35.479Z,4.87
2018-07-26T22:34:05.720Z,5.47
2018-07-26T22:36:34.938Z,4.33
2018-07-26T22:39:06.195Z,6.85
2018-07-26T22:41:35.484Z,5.00
2018-07-26T22:44:04.985Z,4.25
2018-07-26T22:46:34.475Z,4.20
2018-07-26T22:49:04.157Z,4.67
2018-07-26T22:51:33.647Z,6.25
2018-07-26T22:54:04.043Z,4.62
2018-07-26T22:56:33.710Z,4.00
2018-07-26T22:59:04.027Z,4.30
2018-07-26T23:01:33.287Z,6.12
2018-07-26T23:04:02.463Z,4.40
2018-07-26T23:06:31.731Z,5.85
2018-07-26T23:09:01.020Z,4.72
2018-07-26T23:11:30.899Z,4.37
2018-07-26T23:14:01.715Z,4.67
2018-07-26T23:16:31.755Z,4.50
2018-07-26T23:19:01.572Z,3.60
2018-07-26T23:21:32.003Z,5.10
2018-07-26T23:24:01.267Z,4.58
2018-07-26T23:26:30.943Z,5.08
2018-07-26T23:29:00.200Z,3.98
2018-07-26T23:31:29.591Z,5.03
2018-07-26T23:33:58.855Z,4.85
2018-07-26T23:36:28.133Z,4.00
2018-07-26T23:38:57.353Z,4.50
2018-07-26T23:41:27.315Z,5.15
2018-07-26T23:43:58.788Z,5.97
2018-07-26T23:46:28.403Z,4.35
2018-07-26T23:48:58.331Z,3.72
2018-07-26T23:51:28.407Z,5.37
2018-07-26T23:53:58.850Z,3.92
2018-07-26T23:56:28.479Z,4.92
2018-07-26T23:58:57.722Z,4.15
